sensor_id;sensor_type;location;lat;lon;timestamp;pressure;altitude;pressure_sealevel;temperature;humidity
52319;BME280;38258;51.148;14.068;2023-02-17T00:00:10;98797.09;;;3.03;100.00
52319;BME280;38258;51.148;14.068;2023-02-17T00:02:38;98786.69;;;2.95;100.00
52319;BME280;38258;51.148;14.068;2023-02-17T00:05:05;98791.78;;;2.89;100.00
52319;BME280;38258;51.148;14.068;2023-02-17T00:07:34;98781.44;;;2.89;100.00
52319;BME280;38258;51.148;14.068;2023-02-17T00:10:00;98797.69;;;2.74;100.00
52319;BME280;38258;51.148;14.068;2023-02-17T00:12:27;98793.34;;;2.71;100.00
52319;BME280;38258;51.148;14.068;2023-02-17T00:14:54;98800.09;;;2.57;100.00
52319;BME280;38258;51.148;14.068;2023-02-17T00:17:21;98801.75;;;2.50;100.00
52319;BME280;38258;51.148;14.068;2023-02-17T00:19:48;98797.47;;;2.53;100.00
52319;BME280;38258;51.148;14.068;2023-02-17T00:22:15;98788.81;;;2.50;100.00
52319;BME280;38258;51.148;14.068;2023-02-17T00:24:43;98791.72;;;2.81;100.00
52319;BME280;38258;51.148;14.068;2023-02-17T00:27:10;98792.63;;;2.85;100.00
52319;BME280;38258;51.148;14.068;2023-02-17T00:29:37;98784.69;;;2.66;100.00
52319;BME280;38258;51.148;14.068;2023-02-17T00:32:04;98790.59;;;2.54;100.00
52319;BME280;38258;51.148;14.068;2023-02-17T00:34:31;98793.25;;;2.60;100.00
52319;BME280;38258;51.148;14.068;2023-02-17T00:36:57;98783.84;;;2.67;100.00
52319;BME280;38258;51.148;14.068;2023-02-17T00:39:24;98782.25;;;2.83;100.00
52319;BME280;38258;51.148;14.068;2023-02-17T00:41:53;98777.94;;;2.82;100.00
52319;BME280;38258;51.148;14.068;2023-02-17T00:44:21;98782.31;;;2.89;100.00
52319;BME280;38258;51.148;14.068;2023-02-17T00:46:51;98787.66;;;3.08;100.00
52319;BME280;38258;51.148;14.068;2023-02-17T00:49:20;98785.88;;;3.02;100.00
52319;BME280;38258;51.148;14.068;2023-02-17T00:51:48;98790.25;;;3.11;100.00
52319;BME280;38258;51.148;14.068;2023-02-17T00:54:15;98788.59;;;3.18;100.00
52319;BME280;38258;51.148;14.068;2023-02-17T00:56:42;98779.97;;;3.22;100.00
52319;BME280;38258;51.148;14.068;2023-02-17T00:59:11;98762.66;;;3.10;100.00
52319;BME280;38258;51.148;14.068;2023-02-17T01:01:38;98773.00;;;3.10;100.00
52319;BME280;38258;51.148;14.068;2023-02-17T01:04:05;98770.34;;;3.01;100.00
52319;BME280;38258;51.148;14.068;2023-02-17T01:06:34;98767.75;;;2.96;100.00
52319;BME280;38258;51.148;14.068;2023-02-17T01:09:02;98751.25;;;2.81;100.00
52319;BME280;38258;51.148;14.068;2023-02-17T01:11:31;98769.53;;;3.06;100.00
52319;BME280;38258;51.148;14.068;2023-02-17T01:13:59;98762.50;;;2.87;100.00
52319;BME280;38258;51.148;14.068;2023-02-17T01:16:29;98756.41;;;2.80;100.00
52319;BME280;38258;51.148;14.068;2023-02-17T01:18:59;98750.88;;;2.43;100.00
52319;BME280;38258;51.148;14.068;2023-02-17T01:21:27;98714.41;;;2.11;100.00
52319;BME280;38258;51.148;14.068;2023-02-17T01:23:57;98643.47;;;1.74;100.00
52319;BME280;38258;51.148;14.068;2023-02-17T01:26:26;98754.31;;;2.42;100.00
52319;BME280;38258;51.148;14.068;2023-02-17T01:28:53;98625.28;;;1.60;100.00
52319;BME280;38258;51.148;14.068;2023-02-17T01:31:21;98737.03;;;2.34;100.00
52319;BME280;38258;51.148;14.068;2023-02-17T01:33:49;98642.19;;;2.15;100.00
52319;BME280;38258;51.148;14.068;2023-02-17T01:36:17;98759.75;;;2.68;100.00
52319;BME280;38258;51.148;14.068;2023-02-17T01:38:44;98753.53;;;2.50;100.00
52319;BME280;38258;51.148;14.068;2023-02-17T01:41:13;98551.41;;;1.62;100.00
52319;BME280;38258;51.148;14.068;2023-02-17T01:43:40;98585.38;;;2.10;100.00
52319;BME280;38258;51.148;14.068;2023-02-17T01:46:08;98676.19;;;2.64;100.00
52319;BME280;38258;51.148;14.068;2023-02-17T01:48:37;98735.84;;;2.94;100.00
52319;BME280;38258;51.148;14.068;2023-02-17T01:51:11;98695.13;;;2.65;100.00
52319;BME280;38258;51.148;14.068;2023-02-17T01:53:40;98730.53;;;2.78;100.00
52319;BME280;38258;51.148;14.068;2023-02-17T01:56:09;98659.53;;;2.30;100.00
52319;BME280;38258;51.148;14.068;2023-02-17T01:58:38;98650.09;;;2.35;100.00
52319;BME280;38258;51.148;14.068;2023-02-17T02:01:07;98717.63;;;2.78;100.00
52319;BME280;38258;51.148;14.068;2023-02-17T02:03:35;98697.81;;;2.76;100.00
52319;BME280;38258;51.148;14.068;2023-02-17T02:06:06;98633.19;;;2.68;100.00
52319;BME280;38258;51.148;14.068;2023-02-17T02:08:41;98589.19;;;2.57;100.00
52319;BME280;38258;51.148;14.068;2023-02-17T02:11:13;98693.16;;;3.55;100.00
52319;BME280;38258;51.148;14.068;2023-02-17T02:13:40;98484.16;;;2.51;100.00
52319;BME280;38258;51.148;14.068;2023-02-17T02:16:13;98669.94;;;3.72;100.00
52319;BME280;38258;51.148;14.068;2023-02-17T02:18:51;98671.69;;;3.78;100.00
52319;BME280;38258;51.148;14.068;2023-02-17T02:21:52;98613.75;;;3.40;100.00
52319;BME280;38258;51.148;14.068;2023-02-17T02:24:31;98651.78;;;3.64;100.00
52319;BME280;38258;51.148;14.068;2023-02-17T02:33:03;98646.75;;;3.99;100.00
52319;BME280;38258;51.148;14.068;2023-02-17T02:35:38;98645.03;;;4.19;100.00
52319;BME280;38258;51.148;14.068;2023-02-17T02:38:12;98634.69;;;4.27;100.00
52319;BME280;38258;51.148;14.068;2023-02-17T02:40:42;98631.25;;;4.25;100.00
52319;BME280;38258;51.148;14.068;2023-02-17T02:43:13;98614.84;;;4.31;100.00
52319;BME280;38258;51.148;14.068;2023-02-17T02:45:40;98609.66;;;4.42;100.00
52319;BME280;38258;51.148;14.068;2023-02-17T02:48:08;98614.84;;;4.49;100.00
52319;BME280;38258;51.148;14.068;2023-02-17T02:50:55;98629.53;;;4.71;100.00
52319;BME280;38258;51.148;14.068;2023-02-17T02:53:46;98619.16;;;4.71;100.00
52319;BME280;38258;51.148;14.068;2023-02-17T02:56:23;98586.38;;;4.40;100.00
52319;BME280;38258;51.148;14.068;2023-02-17T02:59:01;98563.06;;;4.32;100.00
52319;BME280;38258;51.148;14.068;2023-02-17T03:01:36;98620.88;;;4.72;100.00
52319;BME280;38258;51.148;14.068;2023-02-17T03:04:12;98625.22;;;4.68;100.00
52319;BME280;38258;51.148;14.068;2023-02-17T03:06:44;98622.63;;;4.57;100.00
52319;BME280;38258;51.148;14.068;2023-02-17T03:09:16;98613.97;;;4.50;100.00
52319;BME280;38258;51.148;14.068;2023-02-17T03:11:45;98618.31;;;4.41;100.00
52319;BME280;38258;51.148;14.068;2023-02-17T03:14:17;98619.16;;;4.36;100.00
52319;BME280;38258;51.148;14.068;2023-02-17T03:16:44;98592.41;;;4.25;100.00
52319;BME280;38258;51.148;14.068;2023-02-17T03:19:14;98594.97;;;4.08;100.00
52319;BME280;38258;51.148;14.068;2023-02-17T03:21:47;98613.13;;;4.23;100.00
52319;BME280;38258;51.148;14.068;2023-02-17T03:24:15;98617.44;;;4.29;100.00
52319;BME280;38258;51.148;14.068;2023-02-17T03:26:42;98568.22;;;3.93;100.00
52319;BME280;38258;51.148;14.068;2023-02-17T03:29:08;98615.72;;;4.37;100.00
52319;BME280;38258;51.148;14.068;2023-02-17T03:31:35;98582.91;;;4.29;100.00
52319;BME280;38258;51.148;14.068;2023-02-17T03:34:02;98614.84;;;4.34;100.00
52319;BME280;38258;51.148;14.068;2023-02-17T03:36:30;98612.28;;;4.43;100.00
52319;BME280;38258;51.148;14.068;2023-02-17T03:38:57;98601.06;;;4.33;100.00
52319;BME280;38258;51.148;14.068;2023-02-17T03:41:24;98604.50;;;4.56;100.00
52319;BME280;38258;51.148;14.068;2023-02-17T03:43:50;98600.16;;;4.70;100.00
52319;BME280;38258;51.148;14.068;2023-02-17T03:46:17;98596.72;;;4.71;100.00
52319;BME280;38258;51.148;14.068;2023-02-17T03:48:44;98596.69;;;4.82;100.00
52319;BME280;38258;51.148;14.068;2023-02-17T03:51:13;98596.69;;;4.91;100.00
52319;BME280;38258;51.148;14.068;2023-02-17T03:53:41;98593.22;;;4.92;100.00
52319;BME280;38258;51.148;14.068;2023-02-17T03:56:08;98594.97;;;4.90;100.00
52319;BME280;38258;51.148;14.068;2023-02-17T03:58:35;98575.94;;;4.94;100.00
52319;BME280;38258;51.148;14.068;2023-02-17T04:01:02;98565.56;;;4.94;100.00
52319;BME280;38258;51.148;14.068;2023-02-17T04:03:29;98541.44;;;4.74;100.00
52319;BME280;38258;51.148;14.068;2023-02-17T04:05:55;98569.03;;;4.93;100.00
52319;BME280;38258;51.148;14.068;2023-02-17T04:08:22;98580.19;;;5.14;100.00
52319;BME280;38258;51.148;14.068;2023-02-17T04:10:51;98551.69;;;5.02;100.00
52319;BME280;38258;51.148;14.068;2023-02-17T04:13:18;98565.50;;;5.10;100.00
52319;BME280;38258;51.148;14.068;2023-02-17T04:15:45;98532.66;;;5.14;100.00
52319;BME280;38258;51.148;14.068;2023-02-17T04:18:12;98535.19;;;5.24;100.00
52319;BME280;38258;51.148;14.068;2023-02-17T04:20:39;98573.16;;;5.47;100.00
52319;BME280;38258;51.148;14.068;2023-02-17T04:23:05;98553.34;;;5.31;100.00
52319;BME280;38258;51.148;14.068;2023-02-17T04:25:32;98553.38;;;5.21;100.00
52319;BME280;38258;51.148;14.068;2023-02-17T04:28:00;98587.88;;;5.44;100.00
52319;BME280;38258;51.148;14.068;2023-02-17T04:30:27;98580.97;;;5.38;100.00
52319;BME280;38258;51.148;14.068;2023-02-17T04:32:53;98576.63;;;5.45;100.00
52319;BME280;38258;51.148;14.068;2023-02-17T04:35:20;98568.03;;;5.32;100.00
52319;BME280;38258;51.148;14.068;2023-02-17T04:37:46;98557.69;;;5.16;100.00
52319;BME280;38258;51.148;14.068;2023-02-17T04:40:13;98571.50;;;5.28;100.00
52319;BME280;38258;51.148;14.068;2023-02-17T04:42:40;98573.25;;;5.21;100.00
52319;BME280;38258;51.148;14.068;2023-02-17T04:45:09;98574.13;;;5.17;100.00
52319;BME280;38258;51.148;14.068;2023-02-17T04:47:36;98573.28;;;5.13;100.00
52319;BME280;38258;51.148;14.068;2023-02-17T04:50:03;98561.19;;;5.11;100.00
52319;BME280;38258;51.148;14.068;2023-02-17T04:52:30;98565.50;;;5.10;100.00
52319;BME280;38258;51.148;14.068;2023-02-17T04:54:56;98546.53;;;4.95;100.00
52319;BME280;38258;51.148;14.068;2023-02-17T04:57:23;98558.63;;;5.06;100.00
52319;BME280;38258;51.148;14.068;2023-02-17T04:59:49;98555.16;;;5.02;100.00
52319;BME280;38258;51.148;14.068;2023-02-17T05:02:17;98538.78;;;4.97;100.00
52319;BME280;38258;51.148;14.068;2023-02-17T05:04:44;98549.13;;;5.03;100.00
52319;BME280;38258;51.148;14.068;2023-02-17T05:07:10;98530.13;;;4.93;100.00
52319;BME280;38258;51.148;14.068;2023-02-17T05:09:37;98539.63;;;4.99;100.00
52319;BME280;38258;51.148;14.068;2023-02-17T05:12:04;98543.06;;;5.00;100.00
52319;BME280;38258;51.148;14.068;2023-02-17T05:14:32;98532.72;;;4.97;100.00
52319;BME280;38258;51.148;14.068;2023-02-17T05:16:58;98531.81;;;5.07;100.00
52319;BME280;38258;51.148;14.068;2023-02-17T05:19:26;98535.28;;;5.01;100.00
52319;BME280;38258;51.148;14.068;2023-02-17T05:21:53;98538.75;;;5.03;100.00
52319;BME280;38258;51.148;14.068;2023-02-17T05:24:19;98537.00;;;5.02;100.00
52319;BME280;38258;51.148;14.068;2023-02-17T05:26:46;98521.47;;;4.93;100.00
52319;BME280;38258;51.148;14.068;2023-02-17T05:29:12;98537.84;;;5.07;100.00
52319;BME280;38258;51.148;14.068;2023-02-17T05:31:39;98534.41;;;5.01;100.00
52319;BME280;38258;51.148;14.068;2023-02-17T05:34:08;98506.81;;;4.89;100.00
52319;BME280;38258;51.148;14.068;2023-02-17T05:36:36;98530.97;;;5.03;100.00
52319;BME280;38258;51.148;14.068;2023-02-17T05:39:03;98531.88;;;4.96;100.00
52319;BME280;38258;51.148;14.068;2023-02-17T05:41:29;98508.53;;;4.93;100.00
52319;BME280;38258;51.148;14.068;2023-02-17T05:43:56;98522.34;;;5.03;100.00
52319;BME280;38258;51.148;14.068;2023-02-17T05:46:23;98522.34;;;4.97;100.00
52319;BME280;38258;51.148;14.068;2023-02-17T05:48:51;98513.72;;;4.96;100.00
52319;BME280;38258;51.148;14.068;2023-02-17T05:51:18;98522.34;;;5.01;100.00
52319;BME280;38258;51.148;14.068;2023-02-17T05:53:45;98524.94;;;5.01;100.00
52319;BME280;38258;51.148;14.068;2023-02-17T05:56:12;98526.69;;;4.96;100.00
52319;BME280;38258;51.148;14.068;2023-02-17T05:58:39;98521.47;;;5.04;100.00
52319;BME280;38258;51.148;14.068;2023-02-17T06:01:07;98523.19;;;5.02;100.00
52319;BME280;38258;51.148;14.068;2023-02-17T06:03:34;98521.50;;;4.94;100.00
52319;BME280;38258;51.148;14.068;2023-02-17T06:06:00;98512.81;;;5.02;100.00
52319;BME280;38258;51.148;14.068;2023-02-17T06:08:27;98492.16;;;4.85;100.00
52319;BME280;38258;51.148;14.068;2023-02-17T06:10:55;98525.75;;;5.08;100.00
52319;BME280;38258;51.148;14.068;2023-02-17T06:13:22;98526.63;;;5.07;100.00
52319;BME280;38258;51.148;14.068;2023-02-17T06:15:48;98516.25;;;5.05;100.00
52319;BME280;38258;51.148;14.068;2023-02-17T06:18:15;98516.28;;;4.99;100.00
52319;BME280;38258;51.148;14.068;2023-02-17T06:20:42;98517.16;;;5.03;100.00
52319;BME280;38258;51.148;14.068;2023-02-17T06:23:08;98511.97;;;5.01;100.00
52319;BME280;38258;51.148;14.068;2023-02-17T06:25:36;98516.25;;;5.08;100.00
52319;BME280;38258;51.148;14.068;2023-02-17T06:28:04;98516.25;;;5.08;100.00
52319;BME280;38258;51.148;14.068;2023-02-17T06:30:30;98512.81;;;5.09;100.00
52319;BME280;38258;51.148;14.068;2023-02-17T06:32:57;98508.44;;;5.13;100.00
52319;BME280;38258;51.148;14.068;2023-02-17T06:35:24;98510.19;;;5.11;100.00
52319;BME280;38258;51.148;14.068;2023-02-17T06:37:50;98514.50;;;5.18;100.00
52319;BME280;38258;51.148;14.068;2023-02-17T06:40:17;98476.53;;;5.00;100.00
52319;BME280;38258;51.148;14.068;2023-02-17T06:42:44;98511.00;;;5.21;100.00
52319;BME280;38258;51.148;14.068;2023-02-17T06:45:12;98478.22;;;5.09;100.00
52319;BME280;38258;51.148;14.068;2023-02-17T06:47:38;98485.13;;;5.12;100.00
52319;BME280;38258;51.148;14.068;2023-02-17T06:50:06;98501.47;;;5.29;100.00
52319;BME280;38258;51.148;14.068;2023-02-17T06:52:33;98497.06;;;5.42;100.00
52319;BME280;38258;51.148;14.068;2023-02-17T06:55:00;98502.22;;;5.47;100.00
52319;BME280;38258;51.148;14.068;2023-02-17T06:57:26;98475.47;;;5.42;100.00
52319;BME280;38258;51.148;14.068;2023-02-17T06:59:53;98466.78;;;5.44;100.00
52319;BME280;38258;51.148;14.068;2023-02-17T07:02:21;98480.56;;;5.57;100.00
52319;BME280;38258;51.148;14.068;2023-02-17T07:04:48;98494.31;;;5.69;100.00
52319;BME280;38258;51.148;14.068;2023-02-17T07:07:14;98489.13;;;5.67;100.00
52319;BME280;38258;51.148;14.068;2023-02-17T07:09:41;98492.56;;;5.69;100.00
52319;BME280;38258;51.148;14.068;2023-02-17T07:12:07;98475.38;;;5.52;100.00
52319;BME280;38258;51.148;14.068;2023-02-17T07:14:34;98495.91;;;5.88;100.00
52319;BME280;38258;51.148;14.068;2023-02-17T07:17:01;98500.19;;;5.94;100.00
52319;BME280;38258;51.148;14.068;2023-02-17T07:19:29;98507.09;;;5.97;100.00
52319;BME280;38258;51.148;14.068;2023-02-17T07:21:56;98480.31;;;5.90;100.00
52319;BME280;38258;51.148;14.068;2023-02-17T07:24:22;98495.81;;;5.99;100.00
52319;BME280;38258;51.148;14.068;2023-02-17T07:26:49;98494.97;;;6.02;100.00
52319;BME280;38258;51.148;14.068;2023-02-17T07:29:18;98463.84;;;5.92;100.00
52319;BME280;38258;51.148;14.068;2023-02-17T07:31:44;98492.28;;;6.13;100.00
52319;BME280;38258;51.148;14.068;2023-02-17T07:34:11;98496.66;;;6.07;100.00
52319;BME280;38258;51.148;14.068;2023-02-17T07:36:38;98490.63;;;6.05;100.00
52319;BME280;38258;51.148;14.068;2023-02-17T07:39:06;98494.00;;;6.14;100.00
52319;BME280;38258;51.148;14.068;2023-02-17T07:41:33;98489.72;;;6.11;100.00
52319;BME280;38258;51.148;14.068;2023-02-17T07:44:07;98483.63;;;6.11;100.00
52319;BME280;38258;51.148;14.068;2023-02-17T07:46:35;98458.63;;;5.99;100.00
52319;BME280;38258;51.148;14.068;2023-02-17T07:49:04;98487.03;;;6.17;100.00
52319;BME280;38258;51.148;14.068;2023-02-17T07:51:30;98478.38;;;6.20;100.00
52319;BME280;38258;51.148;14.068;2023-02-17T07:54:00;98475.69;;;6.26;100.00
52319;BME280;38258;51.148;14.068;2023-02-17T07:56:27;98476.53;;;6.31;100.00
52319;BME280;38258;51.148;14.068;2023-02-17T07:58:54;98455.03;;;6.15;100.00
52319;BME280;38258;51.148;14.068;2023-02-17T08:01:23;98472.25;;;6.26;100.00
52319;BME280;38258;51.148;14.068;2023-02-17T08:03:50;98480.78;;;6.40;100.00
52319;BME280;38258;51.148;14.068;2023-02-17T08:06:18;98467.84;;;6.35;100.00
52319;BME280;38258;51.148;14.068;2023-02-17T08:08:45;98480.69;;;6.46;100.00
52319;BME280;38258;51.148;14.068;2023-02-17T08:11:30;98478.97;;;6.47;100.00
52319;BME280;38258;51.148;14.068;2023-02-17T08:14:16;98461.78;;;6.32;100.00
52319;BME280;38258;51.148;14.068;2023-02-17T08:16:43;98484.97;;;6.52;100.00
52319;BME280;38258;51.148;14.068;2023-02-17T08:19:09;98489.31;;;6.51;100.00
52319;BME280;38258;51.148;14.068;2023-02-17T08:21:36;98483.22;;;6.54;100.00
52319;BME280;38258;51.148;14.068;2023-02-17T08:24:03;98459.91;;;6.45;100.00
52319;BME280;38258;51.148;14.068;2023-02-17T08:26:30;98483.09;;;6.68;100.00
52319;BME280;38258;51.148;14.068;2023-02-17T08:28:57;98490.00;;;6.68;100.00
52319;BME280;38258;51.148;14.068;2023-02-17T08:31:25;98481.41;;;6.62;100.00
52319;BME280;38258;51.148;14.068;2023-02-17T08:33:54;98479.59;;;6.69;100.00
52319;BME280;38258;51.148;14.068;2023-02-17T08:36:21;98474.34;;;6.74;100.00
52319;BME280;38258;51.148;14.068;2023-02-17T08:38:50;98469.13;;;6.77;100.00
52319;BME280;38258;51.148;14.068;2023-02-17T08:41:19;98476.00;;;6.79;100.00
52319;BME280;38258;51.148;14.068;2023-02-17T08:43:48;98476.97;;;6.72;100.00
52319;BME280;38258;51.148;14.068;2023-02-17T08:46:16;98460.69;;;6.56;100.00
52319;BME280;38258;51.148;14.068;2023-02-17T08:48:43;98480.41;;;6.73;100.00
52319;BME280;38258;51.148;14.068;2023-02-17T08:51:11;98489.00;;;6.79;100.00
52319;BME280;38258;51.148;14.068;2023-02-17T08:53:39;98463.19;;;6.64;100.00
52319;BME280;38258;51.148;14.068;2023-02-17T08:56:05;98476.03;;;6.76;100.00
52319;BME280;38258;51.148;14.068;2023-02-17T08:58:32;98477.59;;;6.93;100.00
52319;BME280;38258;51.148;14.068;2023-02-17T09:01:01;98448.41;;;6.69;100.00
52319;BME280;38258;51.148;14.068;2023-02-17T09:03:28;98463.00;;;6.79;100.00
52319;BME280;38258;51.148;14.068;2023-02-17T09:05:55;98462.88;;;6.92;100.00
52319;BME280;38258;51.148;14.068;2023-02-17T09:08:22;98450.75;;;6.91;100.00
52319;BME280;38258;51.148;14.068;2023-02-17T09:10:49;98429.34;;;6.69;100.00
52319;BME280;38258;51.148;14.068;2023-02-17T09:13:17;98410.34;;;6.63;100.00
52319;BME280;38258;51.148;14.068;2023-02-17T09:15:44;98420.56;;;6.77;100.00
52319;BME280;38258;51.148;14.068;2023-02-17T09:18:11;98452.41;;;6.97;100.00
52319;BME280;38258;51.148;14.068;2023-02-17T09:20:38;98447.13;;;7.03;100.00
52319;BME280;38258;51.148;14.068;2023-02-17T09:23:05;98421.09;;;7.04;100.00
52319;BME280;38258;51.148;14.068;2023-02-17T09:25:32;98424.69;;;6.97;100.00
52319;BME280;38258;51.148;14.068;2023-02-17T09:27:58;98439.19;;;7.14;100.00
52319;BME280;38258;51.148;14.068;2023-02-17T09:30:25;98443.41;;;7.21;100.00
52319;BME280;38258;51.148;14.068;2023-02-17T09:32:51;98447.66;;;7.28;100.00
52319;BME280;38258;51.148;14.068;2023-02-17T09:35:19;98442.34;;;7.36;100.00
52319;BME280;38258;51.148;14.068;2023-02-17T09:37:46;98445.78;;;7.36;100.00
52319;BME280;38258;51.148;14.068;2023-02-17T09:40:17;98444.91;;;7.39;100.00
52319;BME280;38258;51.148;14.068;2023-02-17T09:42:44;98426.09;;;7.20;100.00
52319;BME280;38258;51.148;14.068;2023-02-17T09:45:14;98441.34;;;7.45;100.00
52319;BME280;38258;51.148;14.068;2023-02-17T09:47:47;98445.56;;;7.52;100.00
52319;BME280;38258;51.148;14.068;2023-02-17T09:50:22;98401.72;;;7.26;100.00
52319;BME280;38258;51.148;14.068;2023-02-17T09:52:55;98429.28;;;7.41;100.00
52319;BME280;38258;51.148;14.068;2023-02-17T09:55:24;98430.06;;;7.46;100.00
52319;BME280;38258;51.148;14.068;2023-02-17T09:57:54;98425.69;;;7.48;100.00
52319;BME280;38258;51.148;14.068;2023-02-17T10:00:25;98408.41;;;7.44;100.00
52319;BME280;38258;51.148;14.068;2023-02-17T10:02:58;98415.13;;;7.57;100.00
52319;BME280;38258;51.148;14.068;2023-02-17T10:05:34;98390.13;;;7.48;100.00
52319;BME280;38258;51.148;14.068;2023-02-17T10:08:02;98407.34;;;7.57;100.00
52319;BME280;38258;51.148;14.068;2023-02-17T10:10:38;98398.59;;;7.60;100.00
52319;BME280;38258;51.148;14.068;2023-02-17T10:13:08;98374.50;;;7.48;100.00
52319;BME280;38258;51.148;14.068;2023-02-17T10:15:38;98396.81;;;7.63;100.00
52319;BME280;38258;51.148;14.068;2023-02-17T10:18:11;98382.75;;;7.74;100.00
52319;BME280;38258;51.148;14.068;2023-02-17T10:20:46;98393.88;;;7.84;100.00
52319;BME280;38258;51.148;14.068;2023-02-17T10:23:16;98369.75;;;7.74;100.00
52319;BME280;38258;51.148;14.068;2023-02-17T10:25:55;98401.41;;;8.01;100.00
52319;BME280;38258;51.148;14.068;2023-02-17T10:28:38;98398.94;;;7.91;100.00
52319;BME280;38258;51.148;14.068;2023-02-17T10:31:11;98392.72;;;8.00;100.00
52319;BME280;38258;51.148;14.068;2023-02-17T10:33:45;98381.25;;;8.09;100.00
52319;BME280;38258;51.148;14.068;2023-02-17T10:36:24;98371.88;;;8.02;100.00
52319;BME280;38258;51.148;14.068;2023-02-17T10:38:52;98384.53;;;8.20;100.00
52319;BME280;38258;51.148;14.068;2023-02-17T10:41:22;98374.13;;;8.20;100.00
52319;BME280;38258;51.148;14.068;2023-02-17T10:43:51;98333.53;;;8.09;100.00
52319;BME280;38258;51.148;14.068;2023-02-17T10:46:26;98345.19;;;8.34;100.00
52319;BME280;38258;51.148;14.068;2023-02-17T10:48:54;98356.22;;;8.47;100.00
52319;BME280;38258;51.148;14.068;2023-02-17T10:51:26;98344.88;;;8.52;100.00
52319;BME280;38258;51.148;14.068;2023-02-17T10:53:57;98332.13;;;8.36;100.00
52319;BME280;38258;51.148;14.068;2023-02-17T10:56:32;98330.22;;;8.44;100.00
52319;BME280;38258;51.148;14.068;2023-02-17T10:59:04;98328.50;;;8.43;100.00
52319;BME280;38258;51.148;14.068;2023-02-17T11:01:33;98333.63;;;8.48;100.00
52319;BME280;38258;51.148;14.068;2023-02-17T11:04:04;98324.00;;;8.52;100.00
52319;BME280;38258;51.148;14.068;2023-02-17T11:06:40;98317.13;;;8.46;100.00
52319;BME280;38258;51.148;14.068;2023-02-17T11:09:17;98288.84;;;8.29;100.00
52319;BME280;38258;51.148;14.068;2023-02-17T11:11:49;98295.53;;;8.42;100.00
52319;BME280;38258;51.148;14.068;2023-02-17T11:14:23;98311.78;;;8.55;100.00
52319;BME280;38258;51.148;14.068;2023-02-17T11:16:53;98307.44;;;8.56;100.00
52319;BME280;38258;51.148;14.068;2023-02-17T11:19:24;98270.69;;;8.24;100.00
52319;BME280;38258;51.148;14.068;2023-02-17T11:21:55;98303.59;;;8.30;100.00
52319;BME280;38258;51.148;14.068;2023-02-17T11:24:24;98291.47;;;8.27;100.00
52319;BME280;38258;51.148;14.068;2023-02-17T11:26:56;98277.84;;;8.14;100.00
52319;BME280;38258;51.148;14.068;2023-02-17T11:29:24;98256.44;;;7.98;100.00
52319;BME280;38258;51.148;14.068;2023-02-17T11:31:56;98287.47;;;8.09;100.00
52319;BME280;38258;51.148;14.068;2023-02-17T11:34:24;98282.50;;;7.98;100.00
52319;BME280;38258;51.148;14.068;2023-02-17T11:37:02;98248.94;;;7.83;100.00
52319;BME280;38258;51.148;14.068;2023-02-17T11:39:29;98270.44;;;7.92;100.00
52319;BME280;38258;51.148;14.068;2023-02-17T11:41:56;98244.84;;;7.71;100.00
52319;BME280;38258;51.148;14.068;2023-02-17T11:44:24;98242.31;;;7.68;100.00
52319;BME280;38258;51.148;14.068;2023-02-17T11:46:57;98253.41;;;7.76;100.00
52319;BME280;38258;51.148;14.068;2023-02-17T11:49:38;98237.94;;;7.67;100.00
52319;BME280;38258;51.148;14.068;2023-02-17T11:52:19;98249.09;;;7.75;100.00
52319;BME280;38258;51.148;14.068;2023-02-17T11:54:59;98232.00;;;7.60;100.00
52319;BME280;38258;51.148;14.068;2023-02-17T11:57:36;98241.50;;;7.62;100.00
52319;BME280;38258;51.148;14.068;2023-02-17T12:00:16;98214.66;;;7.60;100.00
52319;BME280;38258;51.148;14.068;2023-02-17T12:02:54;98217.94;;;7.70;100.00
52319;BME280;38258;51.148;14.068;2023-02-17T12:05:25;98219.78;;;7.65;100.00
52319;BME280;38258;51.148;14.068;2023-02-17T12:08:04;98191.22;;;7.60;100.00
52319;BME280;38258;51.148;14.068;2023-02-17T12:10:43;98217.69;;;7.83;100.00
52319;BME280;38258;51.148;14.068;2023-02-17T12:13:22;98196.94;;;7.80;100.00
52319;BME280;38258;51.148;14.068;2023-02-17T12:16:03;98216.47;;;8.01;100.00
52319;BME280;38258;51.148;14.068;2023-02-17T12:18:40;98203.19;;;8.13;100.00
52319;BME280;38258;51.148;14.068;2023-02-17T12:21:19;98203.03;;;8.21;100.00
52319;BME280;38258;51.148;14.068;2023-02-17T12:23:59;98205.56;;;8.24;100.00
52319;BME280;38258;51.148;14.068;2023-02-17T12:26:35;98199.53;;;8.22;100.00
52319;BME280;38258;51.148;14.068;2023-02-17T12:29:13;98195.78;;;8.34;100.00
52319;BME280;38258;51.148;14.068;2023-02-17T12:31:58;98182.41;;;8.49;100.00
52319;BME280;38258;51.148;14.068;2023-02-17T12:34:30;98195.44;;;8.51;100.00
52319;BME280;38258;51.148;14.068;2023-02-17T12:37:00;98175.66;;;8.79;100.00
52319;BME280;38258;51.148;14.068;2023-02-17T12:39:32;98169.50;;;8.83;100.00
52319;BME280;38258;51.148;14.068;2023-02-17T12:42:02;98142.72;;;8.76;100.00
52319;BME280;38258;51.148;14.068;2023-02-17T12:44:33;98158.72;;;8.95;100.00
52319;BME280;38258;51.148;14.068;2023-02-17T12:47:05;98143.84;;;9.00;100.00
52319;BME280;38258;51.148;14.068;2023-02-17T12:49:40;98136.91;;;9.32;100.00
52319;BME280;38258;51.148;14.068;2023-02-17T12:52:12;98140.88;;;9.46;100.00
52319;BME280;38258;51.148;14.068;2023-02-17T12:54:47;98134.84;;;9.44;100.00
52319;BME280;38258;51.148;14.068;2023-02-17T12:57:18;98137.19;;;9.53;100.00
52319;BME280;38258;51.148;14.068;2023-02-17T12:59:49;98140.91;;;9.44;100.00
52319;BME280;38258;51.148;14.068;2023-02-17T13:02:18;98137.28;;;9.50;100.00
52319;BME280;38258;51.148;14.068;2023-02-17T13:04:48;98090.72;;;9.34;100.00
52319;BME280;38258;51.148;14.068;2023-02-17T13:07:31;98124.19;;;9.52;100.00